Time;durP1;ratioP1;P1;durP2;ratioP2;P2;SDS_P1;SDS_P2;PMS_P1;PMS_P2;Temp;Humidity;BMP_temperature;BMP_pressure;BME280_temperature;BME280_humidity;BME280_pressure;Samples;Min_cycle;Max_cycle;Signal;HPM_P1;HPM_P2
2022/01/31 00:01:46;;;;;;;12.00;8.45;;;;;;;0.84;74.56;99097.94;4096363;28;20241;-55
2022/01/31 00:03:49;;;;;;;14.10;9.00;;;;;;;0.84;74.56;99084.47;4095213;28;20235;-56
2022/01/31 00:05:51;;;;;;;18.13;9.50;;;;;;;0.85;75.06;99094.22;4110296;28;20286;-56
2022/01/31 00:07:53;;;;;;;13.45;8.43;;;;;;;0.90;74.93;99105.34;4092825;28;20219;-56
2022/01/31 00:09:54;;;;;;;14.32;10.02;;;;;;;0.99;74.73;99093.50;4092870;28;20245;-55
2022/01/31 00:12:01;;;;;;;22.00;12.63;;;;;;;1.03;74.27;99067.91;4110987;28;20214;-55
2022/01/31 00:14:14;;;;;;;18.67;14.25;;;;;;;1.06;74.41;99053.19;4095613;28;20239;-55
2022/01/31 00:16:21;;;;;;;22.10;16.15;;;;;;;1.02;74.15;99044.63;4110234;28;20202;-57
2022/01/31 00:18:23;;;;;;;32.80;17.67;;;;;;;0.92;74.66;99041.34;4115381;28;20297;-55
2022/01/31 00:20:24;;;;;;;23.67;12.85;;;;;;;0.84;75.05;99035.16;4095653;28;20227;-56
2022/01/31 00:22:26;;;;;;;14.13;11.68;;;;;;;0.84;75.11;99052.16;4092379;28;20298;-55
2022/01/31 00:24:28;;;;;;;27.60;14.77;;;;;;;0.89;74.79;99049.75;4093799;28;20211;-56
2022/01/31 00:26:30;;;;;;;13.85;11.90;;;;;;;0.97;75.00;99032.72;4096882;28;20215;-57
2022/01/31 00:28:31;;;;;;;12.23;10.13;;;;;;;1.08;74.63;99024.25;4096757;28;20666;-55
2022/01/31 00:30:33;;;;;;;16.67;9.02;;;;;;;1.07;74.86;99012.63;4095564;28;20203;-55
2022/01/31 00:32:35;;;;;;;10.70;7.22;;;;;;;1.14;74.55;98992.03;4114552;28;20872;-56
2022/01/31 00:34:38;;;;;;;9.82;7.95;;;;;;;1.23;74.78;98974.78;4093603;28;20321;-55
2022/01/31 00:36:40;;;;;;;10.30;7.45;;;;;;;1.18;74.41;98971.81;4093392;28;20212;-55
2022/01/31 00:38:41;;;;;;;22.10;8.20;;;;;;;1.22;73.97;98961.50;4112405;28;20326;-55
2022/01/31 00:40:43;;;;;;;13.80;8.13;;;;;;;1.30;74.26;98946.09;4094730;28;20246;-55
2022/01/31 00:42:46;;;;;;;13.18;6.57;;;;;;;1.27;74.35;98948.31;4098218;28;20227;-56
2022/01/31 00:44:57;;;;;;;8.73;6.80;;;;;;;1.26;74.76;98952.00;4079165;29;20239;-56
2022/01/31 00:47:04;;;;;;;17.73;6.40;;;;;;;1.19;74.72;98927.66;4095773;28;20238;-56
2022/01/31 00:49:12;;;;;;;9.70;6.80;;;;;;;1.28;74.24;98918.47;4095589;28;20694;-56
2022/01/31 00:51:13;;;;;;;10.60;6.78;;;;;;;1.20;74.51;98909.66;4109726;28;20300;-56
2022/01/31 00:53:15;;;;;;;9.07;7.43;;;;;;;1.20;74.29;98880.00;4095328;28;20231;-54
2022/01/31 00:55:17;;;;;;;10.05;6.63;;;;;;;1.13;74.68;98874.50;4093607;28;20203;-55
2022/01/31 00:57:18;;;;;;;7.55;6.28;;;;;;;1.13;74.77;98877.19;4095668;28;20290;-55
2022/01/31 00:59:23;;;;;;;11.60;8.48;;;;;;;1.14;74.69;98854.59;4109355;28;20234;-56
2022/01/31 01:01:25;;;;;;;10.02;7.65;;;;;;;1.15;75.10;98839.28;4094710;28;20732;-56
2022/01/31 01:03:26;;;;;;;11.63;7.32;;;;;;;1.04;75.31;98835.19;4096229;28;20238;-56
2022/01/31 01:05:29;;;;;;;14.68;7.70;;;;;;;1.07;75.11;98829.41;4097194;28;20211;-55
2022/01/31 01:07:31;;;;;;;9.05;6.15;;;;;;;1.22;74.76;98822.19;4096427;28;20290;-55
2022/01/31 01:09:33;;;;;;;11.15;6.68;;;;;;;1.13;75.01;98826.00;4099639;28;20202;-56
2022/01/31 01:11:35;;;;;;;11.38;7.13;;;;;;;1.21;75.12;98809.75;4092652;28;20299;-56
2022/01/31 01:13:37;;;;;;;14.85;6.95;;;;;;;1.26;74.90;98793.84;4080132;28;20771;-55
2022/01/31 01:15:38;;;;;;;9.60;6.13;;;;;;;1.34;74.16;98769.50;4111013;28;20207;-55
2022/01/31 01:17:40;;;;;;;12.25;6.68;;;;;;;1.37;74.07;98782.63;4095101;28;20211;-55
2022/01/31 01:19:43;;;;;;;10.45;7.68;;;;;;;1.37;74.46;98774.53;4109543;28;20214;-55
2022/01/31 01:21:45;;;;;;;9.70;6.25;;;;;;;1.52;74.31;98772.66;4094346;28;20696;-55
2022/01/31 01:23:48;;;;;;;6.05;5.30;;;;;;;1.60;73.74;98777.97;4111456;28;20325;-55
2022/01/31 01:25:51;;;;;;;9.63;6.57;;;;;;;1.63;73.77;98758.72;4091615;28;20235;-55
2022/01/31 01:27:54;;;;;;;12.13;4.75;;;;;;;1.56;73.67;98755.09;4110937;28;20210;-56
2022/01/31 01:29:56;;;;;;;11.18;5.45;;;;;;;1.59;73.75;98760.13;4115723;28;20652;-56
2022/01/31 01:31:58;;;;;;;8.90;5.88;;;;;;;1.64;74.18;98757.69;4094323;28;20692;-56
2022/01/31 01:34:00;;;;;;;10.05;4.32;;;;;;;1.68;73.52;98750.88;4109856;28;20210;-56
2022/01/31 01:36:03;;;;;;;15.50;7.85;;;;;;;1.76;73.70;98734.63;4092886;28;20517;-57
2022/01/31 01:38:07;;;;;;;10.00;3.80;;;;;;;1.77;73.65;98727.34;4109218;28;20294;-55
2022/01/31 01:40:09;;;;;;;8.45;4.53;;;;;;;1.81;73.21;98710.59;4108924;28;20218;-56
2022/01/31 01:42:11;;;;;;;12.63;4.93;;;;;;;1.85;73.16;98701.09;4094682;28;20307;-56
2022/01/31 01:44:13;;;;;;;15.15;5.93;;;;;;;1.87;72.90;98698.22;4110996;28;20608;-56
2022/01/31 01:46:14;;;;;;;8.35;5.18;;;;;;;1.90;73.55;98695.97;4108097;28;20242;-56
2022/01/31 01:48:16;;;;;;;10.85;5.00;;;;;;;2.01;72.64;98673.88;4095074;28;20235;-56
2022/01/31 01:50:18;;;;;;;11.20;5.72;;;;;;;2.03;72.78;98658.34;4094730;28;20867;-55
2022/01/31 01:52:20;;;;;;;12.18;5.35;;;;;;;2.09;72.82;98654.03;4092787;28;20322;-56
2022/01/31 01:54:21;;;;;;;6.85;5.25;;;;;;;2.11;73.10;98647.41;4092463;28;20235;-56
2022/01/31 01:56:23;;;;;;;9.05;5.38;;;;;;;2.11;72.12;98635.75;4094833;28;20215;-56
2022/01/31 01:58:29;;;;;;;11.93;4.63;;;;;;;2.14;72.21;98625.41;4106008;28;20245;-55
2022/01/31 02:00:49;;;;;;;13.02;6.80;;;;;;;2.21;71.94;98637.09;4087739;28;20318;-55
2022/01/31 02:02:51;;;;;;;9.00;4.78;;;;;;;2.19;72.25;98620.28;4089632;29;20750;-56
2022/01/31 02:04:53;;;;;;;17.08;6.10;;;;;;;2.19;72.19;98622.13;4107958;28;20214;-55
2022/01/31 02:06:55;;;;;;;6.30;4.70;;;;;;;2.29;72.35;98622.66;4092863;28;20600;-56
2022/01/31 02:08:57;;;;;;;8.55;4.57;;;;;;;2.27;71.66;98611.22;4091832;28;20210;-57
2022/01/31 02:10:59;;;;;;;10.23;4.45;;;;;;;2.29;71.69;98604.59;4095267;28;20214;-55
2022/01/31 02:13:05;;;;;;;9.43;4.68;;;;;;;2.32;71.64;98588.00;4077852;29;20227;-54
2022/01/31 02:15:08;;;;;;;9.15;5.40;;;;;;;2.32;72.41;98582.59;4093411;28;20208;-55
2022/01/31 02:17:10;;;;;;;14.13;4.60;;;;;;;2.26;72.62;98577.97;4108579;28;20226;-54
2022/01/31 02:19:15;;;;;;;10.07;4.88;;;;;;;2.31;72.27;98567.44;4108549;28;20587;-54
2022/01/31 02:21:17;;;;;;;5.30;4.53;;;;;;;2.35;72.19;98559.78;4089213;28;20250;-55
2022/01/31 02:23:21;;;;;;;14.23;6.85;;;;;;;2.34;72.23;98550.81;4092858;28;20258;-54
2022/01/31 02:25:22;;;;;;;16.77;5.10;;;;;;;2.41;71.75;98535.50;4080202;29;20223;-56
2022/01/31 02:27:33;;;;;;;10.70;5.40;;;;;;;2.38;72.11;98513.47;4091486;28;20226;-55
2022/01/31 02:29:35;;;;;;;12.05;4.57;;;;;;;2.38;71.97;98516.16;4094641;28;20262;-55
2022/01/31 02:31:37;;;;;;;9.80;4.82;;;;;;;2.35;72.47;98509.28;4092649;28;20227;-56
2022/01/31 02:33:40;;;;;;;7.97;4.63;;;;;;;2.37;72.20;98501.00;4092493;28;20258;-55
2022/01/31 02:35:42;;;;;;;8.98;5.43;;;;;;;2.32;72.05;98482.72;4110201;28;20286;-55
2022/01/31 02:37:43;;;;;;;12.43;5.60;;;;;;;2.36;72.03;98467.81;4091209;28;20257;-56
2022/01/31 02:39:46;;;;;;;8.20;5.28;;;;;;;2.37;72.15;98450.56;4094253;28;20223;-55
2022/01/31 02:41:48;;;;;;;9.35;4.82;;;;;;;2.34;72.44;98432.06;4110503;28;20313;-56
2022/01/31 02:43:54;;;;;;;6.80;4.05;;;;;;;2.33;72.15;98435.78;4107182;28;20303;-56
2022/01/31 02:45:57;;;;;;;13.52;5.68;;;;;;;2.40;72.24;98466.34;4109757;28;20226;-55
2022/01/31 02:48:01;;;;;;;12.18;5.25;;;;;;;2.41;72.07;98481.50;4079378;29;20231;-56
2022/01/31 02:50:06;;;;;;;12.55;6.03;;;;;;;2.44;72.72;98481.13;4107613;28;20258;-56
2022/01/31 02:52:10;;;;;;;8.20;5.65;;;;;;;2.38;72.20;98495.41;4092981;28;20686;-56
2022/01/31 02:54:11;;;;;;;11.90;5.70;;;;;;;2.46;72.56;98510.59;4082313;28;20226;-56
2022/01/31 02:56:13;;;;;;;10.57;4.95;;;;;;;2.49;71.95;98500.28;4106356;28;20203;-55
2022/01/31 02:58:16;;;;;;;12.57;5.03;;;;;;;2.49;72.66;98500.28;4089909;28;20207;-56
2022/01/31 03:00:18;;;;;;;13.30;5.10;;;;;;;2.51;72.30;98492.78;4093022;28;20629;-56
2022/01/31 03:02:20;;;;;;;16.88;5.75;;;;;;;2.54;72.08;98486.97;4109399;28;20226;-55
2022/01/31 03:04:21;;;;;;;8.82;5.47;;;;;;;2.55;72.26;98493.22;4094502;28;20689;-56
2022/01/31 03:06:23;;;;;;;8.60;5.32;;;;;;;2.53;72.48;98496.13;4108269;28;20297;-55
2022/01/31 03:08:25;;;;;;;7.00;6.10;;;;;;;2.58;72.33;98485.56;4093908;28;20211;-55
2022/01/31 03:10:27;;;;;;;14.18;5.45;;;;;;;2.58;72.42;98476.59;4109735;28;20206;-55
2022/01/31 03:12:29;;;;;;;11.15;5.63;;;;;;;2.61;72.32;98471.63;4112536;28;20313;-55
2022/01/31 03:14:31;;;;;;;11.85;5.40;;;;;;;2.60;72.69;98461.88;4111481;28;20225;-56
2022/01/31 03:16:34;;;;;;;10.27;6.15;;;;;;;2.61;72.33;98465.41;4092996;28;20234;-56
2022/01/31 03:18:36;;;;;;;8.05;5.88;;;;;;;2.67;72.42;98460.03;4094063;28;20223;-55
2022/01/31 03:20:38;;;;;;;14.45;6.68;;;;;;;2.63;72.30;98442.59;4108112;28;20711;-56
2022/01/31 03:22:40;;;;;;;13.38;7.32;;;;;;;2.60;72.67;98456.47;4093484;28;20679;-56
2022/01/31 03:24:43;;;;;;;19.23;5.43;;;;;;;2.65;72.50;98451.31;4093207;28;20242;-56
2022/01/31 03:26:44;;;;;;;10.63;6.72;;;;;;;2.69;72.38;98447.19;4104671;28;20211;-55
2022/01/31 03:28:49;;;;;;;7.97;5.25;;;;;;;2.69;72.43;98452.59;4095510;28;20211;-56
2022/01/31 03:30:51;;;;;;;10.93;5.82;;;;;;;2.71;72.36;98442.41;4111011;28;20696;-56
2022/01/31 03:32:53;;;;;;;22.65;7.18;;;;;;;2.74;72.39;98433.88;4096193;28;20269;-57
2022/01/31 03:34:54;;;;;;;15.85;5.93;;;;;;;2.78;72.14;98426.19;4111018;28;20724;-56
2022/01/31 03:36:56;;;;;;;8.55;7.07;;;;;;;2.82;72.32;98425.59;4114504;28;20202;-60
2022/01/31 03:38:58;;;;;;;25.27;8.35;;;;;;;2.75;71.91;98419.34;4099540;28;21983;-62
2022/01/31 03:40:59;;;;;;;22.77;6.88;;;;;;;2.75;72.06;98408.53;4114959;28;20846;-57
2022/01/31 03:43:01;;;;;;;9.00;5.28;;;;;;;2.82;71.76;98401.28;4096242;28;20271;-57
2022/01/31 03:45:05;;;;;;;10.10;6.13;;;;;;;2.78;71.90;98391.94;4095492;28;20204;-57
2022/01/31 03:47:07;;;;;;;14.32;6.53;;;;;;;2.84;72.24;98391.13;4111775;28;20199;-57
2022/01/31 03:49:09;;;;;;;8.57;5.97;;;;;;;2.81;72.56;98380.69;4110340;28;20722;-55
2022/01/31 03:51:11;;;;;;;15.90;5.65;;;;;;;2.82;72.86;98366.16;4098907;28;20214;-56
2022/01/31 03:53:13;;;;;;;11.02;4.45;;;;;;;2.86;72.22;98362.00;4096370;28;20231;-57
2022/01/31 03:55:15;;;;;;;9.95;4.75;;;;;;;2.88;72.65;98354.53;4097495;28;21488;-57
2022/01/31 03:57:17;;;;;;;9.10;5.63;;;;;;;2.90;72.15;98322.75;4095394;28;20211;-56
2022/01/31 03:59:19;;;;;;;14.02;5.63;;;;;;;2.89;72.13;98329.19;4096726;28;20215;-56
2022/01/31 04:01:23;;;;;;;20.40;5.25;;;;;;;2.90;72.87;98324.59;4093102;28;20580;-56
2022/01/31 04:03:28;;;;;;;15.05;5.72;;;;;;;2.89;72.93;98329.19;4095299;28;20640;-56
2022/01/31 04:05:31;;;;;;;16.17;5.97;;;;;;;2.97;72.59;98315.47;4079021;29;20243;-55
2022/01/31 04:07:33;;;;;;;6.38;4.80;;;;;;;3.01;72.50;98311.31;4112315;28;20636;-57
2022/01/31 04:09:35;;;;;;;9.55;5.40;;;;;;;3.00;72.84;98301.53;4095804;28;20252;-56
2022/01/31 04:11:36;;;;;;;9.88;5.18;;;;;;;3.02;72.83;98288.66;4096064;28;20286;-56
2022/01/31 04:13:38;;;;;;;7.85;5.15;;;;;;;3.06;72.84;98281.78;4078240;29;20220;-55
2022/01/31 04:15:40;;;;;;;7.30;5.53;;;;;;;3.03;72.77;98271.41;4093894;28;20219;-55
2022/01/31 04:17:42;;;;;;;13.98;5.25;;;;;;;3.09;72.31;98277.84;4114342;28;20238;-55
2022/01/31 04:19:43;;;;;;;7.45;4.68;;;;;;;3.06;73.32;98264.75;4096296;28;20883;-55
2022/01/31 04:21:45;;;;;;;13.68;5.00;;;;;;;3.08;73.25;98263.50;4094453;28;20331;-55
2022/01/31 04:23:47;;;;;;;10.35;5.32;;;;;;;3.08;72.86;98258.09;4111530;28;20231;-55
2022/01/31 04:28:00;;;;;;;16.55;5.22;;;;;;;3.11;73.19;98240.63;4095321;28;20603;-56
2022/01/31 04:30:06;;;;;;;13.30;5.80;;;;;;;3.14;72.99;98243.75;4093662;28;20209;-55
2022/01/31 04:32:07;;;;;;;12.75;4.65;;;;;;;3.10;73.40;98212.78;4095976;28;20740;-55
2022/01/31 04:34:10;;;;;;;11.40;5.78;;;;;;;3.10;73.53;98220.88;4096796;28;20229;-56
2022/01/31 04:36:14;;;;;;;9.40;4.97;;;;;;;3.09;73.69;98204.88;4109459;28;20287;-56
2022/01/31 04:38:16;;;;;;;9.68;5.15;;;;;;;3.12;73.16;98210.69;4111712;28;20953;-55
2022/01/31 04:40:18;;;;;;;9.73;4.20;;;;;;;3.14;73.15;98208.59;4108851;28;20211;-55
2022/01/31 04:42:20;;;;;;;8.95;4.65;;;;;;;3.09;73.83;98211.13;4109243;28;20282;-55
2022/01/31 04:44:24;;;;;;;10.23;5.20;;;;;;;3.15;73.71;98188.63;4108243;28;20238;-55
2022/01/31 04:46:26;;;;;;;13.15;5.97;;;;;;;3.11;73.70;98198.22;4107575;28;20934;-55
2022/01/31 04:48:28;;;;;;;20.15;4.93;;;;;;;3.14;73.96;98186.97;4097508;28;20212;-54
2022/01/31 04:50:30;;;;;;;8.57;4.57;;;;;;;3.14;74.29;98192.38;4108811;28;20306;-56
2022/01/31 04:52:32;;;;;;;10.05;6.32;;;;;;;3.09;74.54;98184.09;4098534;28;20282;-58
2022/01/31 04:54:34;;;;;;;16.60;4.55;;;;;;;3.06;74.90;98184.50;4109440;28;20727;-54
2022/01/31 04:56:38;;;;;;;8.13;5.35;;;;;;;3.02;75.97;98167.03;4111478;28;20215;-56
2022/01/31 04:58:40;;;;;;;13.88;5.40;;;;;;;3.01;75.74;98164.56;4091319;28;20228;-57
2022/01/31 05:00:42;;;;;;;14.30;4.70;;;;;;;2.94;76.51;98148.34;4111251;28;20219;-56
2022/01/31 05:02:44;;;;;;;11.35;5.80;;;;;;;2.91;76.92;98159.59;4090139;28;20238;-54
2022/01/31 05:04:46;;;;;;;8.70;4.97;;;;;;;2.89;77.21;98145.47;4113683;28;20203;-54
2022/01/31 05:06:48;;;;;;;11.82;4.70;;;;;;;2.81;77.49;98142.97;4094679;28;20251;-55
2022/01/31 05:08:50;;;;;;;5.65;4.78;;;;;;;2.75;77.38;98137.59;4093920;28;20306;-57
2022/01/31 05:10:52;;;;;;;18.10;5.18;;;;;;;2.81;78.04;98129.47;4109716;28;20716;-56
2022/01/31 05:12:54;;;;;;;14.20;5.25;;;;;;;2.72;78.02;98117.25;4091940;28;20695;-57
2022/01/31 05:14:56;;;;;;;9.32;5.28;;;;;;;2.69;78.73;98123.06;4112613;28;20338;-53
2022/01/31 05:16:57;;;;;;;12.23;5.70;;;;;;;2.69;78.60;98114.97;4096252;28;20249;-55
2022/01/31 05:19:04;;;;;;;15.15;6.00;;;;;;;2.77;78.71;98120.16;4093253;28;20226;-57
2022/01/31 05:21:08;;;;;;;21.52;5.57;;;;;;;2.71;78.60;98120.16;4096951;28;20567;-57
2022/01/31 05:23:10;;;;;;;22.58;6.40;;;;;;;2.72;79.11;98111.84;4094772;28;20235;-57
2022/01/31 05:25:11;;;;;;;8.52;5.35;;;;;;;2.69;79.45;98117.69;4093375;28;20246;-56
2022/01/31 05:27:14;;;;;;;15.05;5.43;;;;;;;2.67;79.65;98114.31;4078123;29;20919;-60
2022/01/31 05:29:15;;;;;;;14.23;5.70;;;;;;;2.64;79.88;98120.16;4093630;28;20207;-58
2022/01/31 05:31:22;;;;;;;18.65;6.10;;;;;;;2.61;79.82;98131.38;4106060;28;20207;-61
2022/01/31 05:33:24;;;;;;;20.00;4.97;;;;;;;2.65;79.44;98121.81;4093430;28;20246;-57
2022/01/31 05:35:26;;;;;;;13.23;5.55;;;;;;;2.66;79.33;98131.59;4112067;28;20324;-59
2022/01/31 05:37:28;;;;;;;7.38;5.47;;;;;;;2.65;80.04;98124.53;4110876;28;20210;-56
2022/01/31 05:39:29;;;;;;;10.50;5.28;;;;;;;2.65;79.60;98131.78;4092400;28;20212;-59
2022/01/31 05:41:31;;;;;;;8.38;4.57;;;;;;;2.60;79.14;98129.72;4095483;28;20259;-57
2022/01/31 05:43:33;;;;;;;15.27;6.35;;;;;;;2.54;79.58;98125.16;4114012;28;20568;-54
2022/01/31 05:45:35;;;;;;;10.27;4.38;;;;;;;2.62;79.36;98133.03;4093434;28;20222;-57
2022/01/31 05:47:37;;;;;;;11.40;6.28;;;;;;;2.58;79.92;98115.59;4094478;28;20720;-56
2022/01/31 05:49:38;;;;;;;7.25;4.78;;;;;;;2.61;79.92;98130.56;4097484;28;20226;-57
2022/01/31 05:52:04;;;;;;;11.23;4.88;;;;;;;2.54;80.09;98125.16;4095789;28;20208;-58
2022/01/31 05:54:06;;;;;;;5.15;4.15;;;;;;;2.57;80.50;98119.34;4108249;28;20262;-57
2022/01/31 05:56:08;;;;;;;8.52;4.57;;;;;;;2.57;80.25;98130.16;4108841;28;20314;-58
2022/01/31 05:58:10;;;;;;;4.90;4.05;;;;;;;2.57;79.95;98124.75;4108559;28;20219;-57
2022/01/31 06:00:12;;;;;;;7.00;5.72;;;;;;;2.55;80.08;98121.41;4107476;28;20599;-60
2022/01/31 06:02:14;;;;;;;8.05;4.78;;;;;;;2.52;80.55;98132.63;4094553;28;20646;-57
2022/01/31 06:04:16;;;;;;;6.07;4.25;;;;;;;2.52;80.20;98127.22;4113281;28;20221;-56
2022/01/31 06:06:17;;;;;;;5.00;4.45;;;;;;;2.51;80.74;98124.72;4093380;28;20207;-56
2022/01/31 06:08:19;;;;;;;9.20;4.72;;;;;;;2.49;80.77;98121.44;4115063;28;20213;-57
2022/01/31 06:10:23;;;;;;;5.18;4.72;;;;;;;2.49;80.52;98116.88;4094794;28;20211;-55
2022/01/31 06:12:24;;;;;;;7.57;3.83;;;;;;;2.54;80.91;98125.16;4097130;28;20596;-55
2022/01/31 06:14:26;;;;;;;4.60;4.20;;;;;;;2.48;80.08;98120.59;4114557;28;20206;-58
2022/01/31 06:16:29;;;;;;;5.75;4.03;;;;;;;2.49;80.36;98121.44;4094196;28;20253;-58
2022/01/31 06:18:31;;;;;;;3.95;3.65;;;;;;;2.46;80.87;98127.22;4094223;28;20674;-59
2022/01/31 06:20:32;;;;;;;12.05;4.38;;;;;;;2.46;80.38;98128.06;4097779;28;20246;-59
2022/01/31 06:22:34;;;;;;;4.75;3.97;;;;;;;2.45;80.49;98115.63;4110258;28;20254;-59
2022/01/31 06:24:36;;;;;;;11.40;5.25;;;;;;;2.48;80.90;98119.78;4099534;28;20215;-57
2022/01/31 06:26:38;;;;;;;4.43;4.03;;;;;;;2.51;80.92;98125.59;4113816;28;20229;-55
2022/01/31 06:28:40;;;;;;;11.07;4.03;;;;;;;2.48;80.54;98125.97;4096786;28;20955;-55
2022/01/31 06:30:42;;;;;;;6.47;4.10;;;;;;;2.53;80.48;98112.69;4111071;28;20217;-58
2022/01/31 06:32:44;;;;;;;7.75;4.10;;;;;;;2.54;80.94;98118.94;4096527;28;20253;-55
2022/01/31 06:34:45;;;;;;;5.88;4.00;;;;;;;2.56;80.54;98123.09;4109740;28;20681;-56
2022/01/31 06:36:49;;;;;;;11.20;3.97;;;;;;;2.55;81.12;98129.50;4112518;28;20213;-57
2022/01/31 06:38:52;;;;;;;6.32;3.70;;;;;;;2.59;80.53;98130.75;4074307;28;20247;-58
2022/01/31 06:40:59;;;;;;;4.18;3.50;;;;;;;2.59;81.01;98122.66;4095105;28;20722;-56
2022/01/31 06:43:01;;;;;;;4.50;3.22;;;;;;;2.61;81.22;98133.25;4091221;28;20689;-54
2022/01/31 06:45:04;;;;;;;7.55;3.85;;;;;;;2.62;81.46;98122.22;4094323;28;20258;-61
2022/01/31 06:47:05;;;;;;;6.85;3.15;;;;;;;2.71;81.25;98123.69;4094980;28;20266;-57
2022/01/31 06:49:07;;;;;;;6.78;4.05;;;;;;;2.71;81.11;98112.03;4096210;28;20223;-57
2022/01/31 06:51:09;;;;;;;8.10;5.22;;;;;;;2.69;81.58;98106.88;4108078;28;20245;-54
2022/01/31 06:53:12;;;;;;;10.65;4.15;;;;;;;2.66;80.77;98093.78;4093083;28;20259;-54
2022/01/31 06:55:19;;;;;;;4.20;3.65;;;;;;;2.72;81.45;98095.63;4109748;28;20321;-54
2022/01/31 06:57:23;;;;;;;7.03;4.10;;;;;;;2.70;81.25;98092.31;4112743;28;20210;-54
2022/01/31 06:59:26;;;;;;;6.10;4.57;;;;;;;2.74;81.48;98087.31;4111897;28;20249;-55
2022/01/31 07:01:32;;;;;;;5.18;4.25;;;;;;;2.77;81.18;98103.94;4096391;28;20879;-56
2022/01/31 07:03:36;;;;;;;5.97;4.60;;;;;;;2.80;81.27;98098.09;4101708;28;20235;-55
2022/01/31 07:05:38;;;;;;;9.27;3.65;;;;;;;2.84;81.27;98103.91;4094778;28;20212;-55
2022/01/31 07:07:45;;;;;;;8.85;3.75;;;;;;;2.86;81.57;98096.44;4097775;28;20202;-56
2022/01/31 07:09:46;;;;;;;4.90;4.25;;;;;;;2.85;81.27;98095.59;4103278;28;20247;-56
2022/01/31 07:11:51;;;;;;;4.40;3.75;;;;;;;2.87;81.70;98100.81;4099571;28;20238;-56
2022/01/31 07:14:07;;;;;;;4.70;4.05;;;;;;;2.87;81.00;98098.09;4096616;28;20231;-57
2022/01/31 07:16:09;;;;;;;5.32;4.95;;;;;;;2.89;81.43;98104.97;4094702;28;20223;-56
2022/01/31 07:18:11;;;;;;;7.03;4.32;;;;;;;2.90;81.16;98106.63;4095445;28;20250;-55
2022/01/31 07:20:22;;;;;;;3.42;3.10;;;;;;;2.91;81.25;98100.16;4099662;28;20546;-56
2022/01/31 07:22:32;;;;;;;4.47;3.50;;;;;;;2.97;81.68;98095.78;4113550;28;20733;-56
2022/01/31 07:26:36;;;;;;;5.68;4.93;;;;;;;2.97;81.42;98109.28;4099796;28;20210;-56
2022/01/31 07:28:42;;;;;;;3.83;3.45;;;;;;;3.01;81.23;98110.53;4119045;28;20268;-55
2022/01/31 07:30:52;;;;;;;5.57;4.32;;;;;;;3.01;81.79;98105.94;4111955;28;20217;-56
2022/01/31 07:32:54;;;;;;;4.20;3.80;;;;;;;3.05;81.04;98101.78;4082615;29;20299;-55
2022/01/31 07:34:56;;;;;;;5.88;3.60;;;;;;;3.08;81.50;98109.44;4117715;28;20723;-57
2022/01/31 07:36:58;;;;;;;4.15;3.75;;;;;;;3.09;81.00;98105.72;4111557;28;20679;-56
2022/01/31 07:39:01;;;;;;;5.75;4.57;;;;;;;3.11;81.22;98106.34;4098293;28;20744;-56
2022/01/31 07:41:14;;;;;;;7.57;4.03;;;;;;;3.15;81.43;98104.84;4097774;28;20297;-55
2022/01/31 07:43:16;;;;;;;5.78;4.63;;;;;;;3.14;81.59;98110.50;4098478;28;20349;-56
2022/01/31 07:45:18;;;;;;;5.00;3.70;;;;;;;3.14;81.61;98095.09;4084491;29;20243;-55
2022/01/31 07:47:20;;;;;;;4.32;4.03;;;;;;;3.11;81.27;98090.13;4109062;28;20215;-55
2022/01/31 07:49:22;;;;;;;4.15;3.85;;;;;;;3.10;81.40;98088.47;4114757;28;20210;-55
2022/01/31 07:51:24;;;;;;;5.20;3.70;;;;;;;3.16;81.15;98090.31;4101153;28;20203;-57
2022/01/31 07:53:26;;;;;;;7.18;5.20;;;;;;;3.20;81.18;98094.22;4115334;28;20270;-56
2022/01/31 07:55:33;;;;;;;7.03;3.75;;;;;;;3.32;81.49;98092.53;4101542;28;20219;-56
2022/01/31 07:57:35;;;;;;;4.82;3.72;;;;;;;3.26;81.41;98104.19;4098801;28;20246;-56
2022/01/31 07:59:40;;;;;;;5.88;3.03;;;;;;;3.24;81.36;98095.47;4095540;28;20665;-56
2022/01/31 08:01:42;;;;;;;4.82;4.10;;;;;;;3.37;81.12;98108.94;4113911;28;20618;-55
2022/01/31 08:03:45;;;;;;;4.00;3.70;;;;;;;3.40;80.90;98094.97;4110585;28;20320;-57
2022/01/31 08:05:47;;;;;;;5.47;4.10;;;;;;;3.35;80.93;98097.47;4117957;28;20206;-56
2022/01/31 08:07:53;;;;;;;4.35;3.95;;;;;;;3.38;80.82;98107.03;4100265;28;20301;-56
2022/01/31 08:09:55;;;;;;;5.00;4.25;;;;;;;3.47;80.69;98101.19;4109353;28;20812;-56
2022/01/31 08:12:03;;;;;;;8.15;4.93;;;;;;;3.56;80.79;98099.06;4110086;28;20289;-57
2022/01/31 08:14:07;;;;;;;4.28;4.00;;;;;;;3.73;80.11;98090.22;4104016;28;20253;-57
2022/01/31 08:16:16;;;;;;;4.72;3.88;;;;;;;4.18;79.21;98089.06;4114037;28;20202;-57
2022/01/31 08:18:18;;;;;;;8.45;5.07;;;;;;;4.39;78.42;98085.97;4102040;28;20941;-57
2022/01/31 08:20:20;;;;;;;4.60;3.78;;;;;;;4.36;78.48;98089.16;4098872;28;20287;-57
2022/01/31 08:22:22;;;;;;;4.70;4.28;;;;;;;4.63;78.27;98081.59;4098116;28;20234;-56
2022/01/31 08:24:24;;;;;;;4.18;3.42;;;;;;;4.68;77.92;98082.56;4097493;28;20247;-56
2022/01/31 08:26:31;;;;;;;3.63;3.05;;;;;;;4.89;76.00;98093.00;4112884;28;20254;-56
2022/01/31 08:28:43;;;;;;;6.13;2.65;;;;;;;4.54;77.12;98083.75;4100958;28;20235;-57
2022/01/31 08:31:02;;;;;;;2.58;2.30;;;;;;;4.38;77.35;98087.03;4082257;28;20217;-58
2022/01/31 08:33:13;;;;;;;2.95;2.60;;;;;;;4.20;78.36;98075.31;4096349;28;20219;-58
2022/01/31 08:35:58;;;;;;;7.97;3.00;;;;;;;4.27;78.34;98090.44;4098019;28;20257;-58
2022/01/31 08:37:50;;;;;;;5.22;2.72;;;;;;;4.47;77.94;98090.28;4096696;28;20214;-58
2022/01/31 08:39:53;;;;;;;4.10;2.70;;;;;;;5.03;76.67;98096.38;4112772;28;20210;-56
2022/01/31 08:41:55;;;;;;;4.55;3.25;;;;;;;5.38;75.64;98090.13;4112311;28;20707;-56
2022/01/31 08:43:57;;;;;;;3.05;2.83;;;;;;;5.77;74.78;98095.03;4099148;28;20306;-56
2022/01/31 08:46:14;;;;;;;9.02;2.58;;;;;;;6.17;73.45;98085.28;4115733;28;20457;-58
2022/01/31 08:48:17;;;;;;;2.75;2.25;;;;;;;6.30;72.14;98085.09;4116494;28;20210;-56
2022/01/31 08:50:19;;;;;;;3.63;2.00;;;;;;;6.58;72.38;98077.91;4099844;28;20351;-55
2022/01/31 08:52:21;;;;;;;2.47;2.28;;;;;;;6.34;71.80;98078.09;4093312;28;20231;-57
2022/01/31 08:54:23;;;;;;;3.42;2.38;;;;;;;5.89;72.67;98068.81;4098128;28;20245;-57
2022/01/31 08:56:25;;;;;;;2.90;1.88;;;;;;;5.43;73.61;98074.00;4100934;28;20911;-56
2022/01/31 08:58:28;;;;;;;2.65;2.38;;;;;;;5.17;74.75;98077.03;4095195;28;20212;-57
2022/01/31 09:00:37;;;;;;;2.15;1.77;;;;;;;5.03;75.59;98072.00;4110770;28;20683;-56
2022/01/31 09:02:59;;;;;;;2.92;2.42;;;;;;;4.81;76.32;98068.88;4113446;28;20630;-55
2022/01/31 09:05:31;;;;;;;6.65;1.92;;;;;;;4.59;76.53;98058.72;4102326;28;20207;-59
2022/01/31 09:07:35;;;;;;;1.83;1.70;;;;;;;4.46;77.22;98054.25;4098110;28;20237;-56
2022/01/31 09:09:54;;;;;;;4.20;2.08;;;;;;;4.32;77.75;98055.41;4096535;28;20230;-57
2022/01/31 09:12:16;;;;;;;2.40;1.83;;;;;;;4.27;77.88;98049.84;4114941;28;20751;-57
2022/01/31 09:14:19;;;;;;;3.03;2.13;;;;;;;4.32;77.88;98051.88;4090920;28;20208;-56
2022/01/31 09:16:22;;;;;;;2.83;2.53;;;;;;;4.26;78.17;98056.31;4100586;28;20242;-55
2022/01/31 09:18:30;;;;;;;3.90;2.08;;;;;;;4.27;77.58;98055.25;4102018;28;20652;-57
2022/01/31 09:20:33;;;;;;;4.05;2.08;;;;;;;4.32;77.66;98057.28;4095187;28;20225;-57
2022/01/31 09:22:45;;;;;;;3.00;2.58;;;;;;;4.37;78.08;98060.16;4093084;28;20437;-56
2022/01/31 09:24:50;;;;;;;3.97;2.85;;;;;;;4.35;77.73;98052.25;4080637;29;20210;-55
2022/01/31 09:27:03;;;;;;;4.75;2.92;;;;;;;4.43;78.19;98068.25;4111720;28;20584;-56
2022/01/31 09:29:05;;;;;;;4.28;2.60;;;;;;;4.40;78.33;98074.09;4111026;28;20222;-57
2022/01/31 09:31:06;;;;;;;3.47;2.85;;;;;;;4.34;77.71;98061.44;4108625;28;20210;-56
2022/01/31 09:33:08;;;;;;;5.75;2.38;;;;;;;4.31;77.91;98067.31;4106025;28;20803;-56
2022/01/31 09:35:10;;;;;;;4.22;2.53;;;;;;;4.27;77.90;98063.38;4094092;28;20305;-55
2022/01/31 09:37:12;;;;;;;4.80;3.50;;;;;;;4.33;78.51;98059.78;4091633;28;20674;-58
2022/01/31 09:39:14;;;;;;;5.70;3.35;;;;;;;4.36;78.51;98053.94;4098588;28;20207;-57
2022/01/31 09:41:21;;;;;;;3.42;2.88;;;;;;;4.34;78.22;98066.84;4097066;28;20211;-58
2022/01/31 09:44:13;;;;;;;8.75;3.58;;;;;;;4.34;77.80;98068.75;4094985;28;20242;-57
2022/01/31 09:46:03;;;;;;;7.93;4.18;;;;;;;4.37;78.09;98076.41;4093532;28;20211;-58
2022/01/31 09:50:11;;;;;;;5.55;3.70;;;;;;;4.36;77.90;98067.47;4098558;28;20238;-57
2022/01/31 09:52:13;;;;;;;4.95;4.55;;;;;;;4.45;78.10;98058.00;4095793;28;20274;-58
2022/01/31 09:54:15;;;;;;;5.30;4.88;;;;;;;4.48;78.39;98062.16;4112812;28;20214;-59